Time;durP1;ratioP1;P1;durP2;ratioP2;P2;SDS_P1;SDS_P2;PMS_P1;PMS_P2;Temp;Humidity;BMP_temperature;BMP_pressure;BME280_temperature;BME280_humidity;BME280_pressure;Samples;Min_cycle;Max_cycle;Signal;HPM_P1;HPM_P2
2021/07/23 00:01:34;;;;;;;8.13;7.40;;;16.80;97.10;;;;;;5073726;28;20262;-63
2021/07/23 00:03:59;;;;;;;7.20;6.50;;;16.80;97.60;;;;;;5073793;28;20255;-63
2021/07/23 00:06:25;;;;;;;9.17;8.23;;;16.90;97.30;;;;;;5073608;28;20182;-64
2021/07/23 00:08:50;;;;;;;7.97;7.27;;;17.00;98.10;;;;;;5070597;28;20206;-64
2021/07/23 00:11:16;;;;;;;7.23;6.63;;;16.80;97.30;;;;;;5073449;28;20199;-64
2021/07/23 00:13:42;;;;;;;7.37;6.60;;;16.80;97.00;;;;;;5073441;28;20183;-64
2021/07/23 00:16:07;;;;;;;7.10;6.40;;;16.70;97.10;;;;;;5072828;28;20168;-63
2021/07/23 00:18:33;;;;;;;9.90;8.67;;;16.60;96.90;;;;;;5073171;28;20305;-64
2021/07/23 00:20:59;;;;;;;8.67;7.40;;;16.70;97.50;;;;;;5073379;28;20179;-64
2021/07/23 00:23:24;;;;;;;12.87;11.57;;;16.60;97.40;;;;;;5073103;28;20174;-64
2021/07/23 00:25:50;;;;;;;9.80;8.90;;;16.50;97.10;;;;;;5073163;28;20179;-63
2021/07/23 00:28:15;;;;;;;7.70;7.00;;;16.50;97.60;;;;;;5073101;28;20238;-64
2021/07/23 00:30:41;;;;;;;9.33;7.70;;;16.50;97.00;;;;;;5072798;28;20244;-63
2021/07/23 00:33:06;;;;;;;8.03;7.30;;;16.40;96.50;;;;;;5073235;28;20175;-63
2021/07/23 00:35:32;;;;;;;8.67;7.87;;;16.50;97.40;;;;;;5073168;28;20175;-64
2021/07/23 00:37:58;;;;;;;8.20;7.40;;;16.40;97.10;;;;;;5072712;28;20209;-64
2021/07/23 00:40:26;;;;;;;6.97;6.47;;;16.50;98.10;;;;;;5073142;28;20175;-63
2021/07/23 00:42:52;;;;;;;6.97;6.10;;;16.40;97.30;;;;;;5072694;28;20180;-64
2021/07/23 00:45:19;;;;;;;7.33;6.73;;;16.20;96.70;;;;;;5073094;28;20410;-64
2021/07/23 00:47:49;;;;;;;7.50;6.87;;;16.10;97.10;;;;;;5072550;28;20199;-64
2021/07/23 00:50:14;;;;;;;6.43;5.93;;;16.00;97.00;;;;;;5072923;28;20456;-64
2021/07/23 00:52:40;;;;;;;6.87;6.17;;;15.90;97.00;;;;;;5072805;28;20413;-64
2021/07/23 00:55:08;;;;;;;6.07;5.57;;;16.00;97.20;;;;;;5072103;28;20176;-63
2021/07/23 00:57:36;;;;;;;7.33;6.73;;;15.90;97.20;;;;;;5072270;28;20713;-63
2021/07/23 01:00:03;;;;;;;6.30;5.80;;;15.90;97.30;;;;;;5072494;28;20515;-63
2021/07/23 01:02:29;;;;;;;5.70;5.20;;;15.90;97.00;;;;;;5071242;28;20432;-64
2021/07/23 01:04:55;;;;;;;7.60;7.00;;;15.90;97.00;;;;;;5072333;28;20414;-63
2021/07/23 01:07:21;;;;;;;6.33;5.70;;;16.00;97.30;;;;;;5072194;28;20487;-64
2021/07/23 01:09:47;;;;;;;7.40;6.70;;;15.90;97.00;;;;;;5072233;28;20210;-64
2021/07/23 01:12:12;;;;;;;10.33;7.27;;;15.90;97.30;;;;;;5072348;28;20632;-63
2021/07/23 01:14:39;;;;;;;9.27;7.03;;;15.90;97.40;;;;;;5072034;28;20394;-64
2021/07/23 01:17:05;;;;;;;5.73;5.20;;;15.80;97.20;;;;;;5071793;28;20274;-64
2021/07/23 01:19:42;;;;;;;6.83;6.27;;;15.90;97.50;;;;;;5072333;28;20433;-63
2021/07/23 01:22:08;;;;;;;6.07;5.47;;;15.70;96.90;;;;;;5072148;28;20627;-63
2021/07/23 01:24:35;;;;;;;6.00;5.40;;;15.70;97.20;;;;;;5071908;28;20996;-63
2021/07/23 01:27:01;;;;;;;6.53;5.93;;;15.70;97.00;;;;;;5071845;28;20455;-63
2021/07/23 01:29:27;;;;;;;7.83;7.13;;;15.60;96.90;;;;;;5071887;28;20813;-63
2021/07/23 01:31:52;;;;;;;6.47;5.87;;;15.70;97.40;;;;;;5071966;28;20632;-63
2021/07/23 01:34:18;;;;;;;6.90;6.20;;;15.60;96.90;;;;;;5071903;28;20167;-63
2021/07/23 01:36:43;;;;;;;7.80;7.10;;;15.50;96.50;;;;;;5071656;28;20220;-64
2021/07/23 01:39:12;;;;;;;6.20;5.70;;;15.60;97.40;;;;;;5072032;28;20210;-63
2021/07/23 01:41:38;;;;;;;6.33;5.73;;;15.60;97.80;;;;;;5071957;28;20170;-63
2021/07/23 01:44:05;;;;;;;6.87;6.20;;;15.70;98.00;;;;;;5071596;28;20397;-64
2021/07/23 01:46:31;;;;;;;7.17;6.57;;;15.90;99.40;;;;;;5071570;28;20463;-63
2021/07/23 01:48:56;;;;;;;8.00;6.30;;;15.80;98.20;;;;;;5071893;28;20453;-63
2021/07/23 01:51:23;;;;;;;6.30;5.73;;;15.50;96.80;;;;;;5071631;28;20234;-63
2021/07/23 01:53:49;;;;;;;6.27;5.70;;;15.50;97.20;;;;;;5071890;28;20163;-64
2021/07/23 01:56:14;;;;;;;6.90;5.60;;;15.60;98.00;;;;;;5071850;28;20401;-63
2021/07/23 01:58:40;;;;;;;6.43;5.93;;;15.60;98.30;;;;;;5071475;28;20187;-63
2021/07/23 02:01:05;;;;;;;7.10;6.40;;;15.30;96.70;;;;;;5071762;28;20195;-63
2021/07/23 02:03:31;;;;;;;9.87;7.63;;;15.30;97.10;;;;;;5070156;28;20697;-63
2021/07/23 02:05:57;;;;;;;7.33;6.73;;;15.30;97.40;;;;;;5071228;28;20181;-63
2021/07/23 02:08:22;;;;;;;7.57;6.87;;;15.40;98.60;;;;;;5073903;28;20183;-62
2021/07/23 02:10:48;;;;;;;6.80;6.30;;;15.50;99.00;;;;;;5075637;28;20186;-63
2021/07/23 02:13:13;;;;;;;6.40;5.20;;;15.50;98.50;;;;;;5075512;28;20235;-63
2021/07/23 02:15:39;;;;;;;7.00;6.10;;;15.60;99.30;;;;;;5075645;28;20246;-63
2021/07/23 02:18:04;;;;;;;5.80;5.40;;;15.40;97.30;;;;;;5074257;28;20270;-63
2021/07/23 02:20:30;;;;;;;6.83;5.87;;;15.30;97.10;;;;;;5075548;28;20175;-63
2021/07/23 02:22:56;;;;;;;7.40;5.90;;;15.40;97.70;;;;;;5075640;28;20191;-63
2021/07/23 02:25:21;;;;;;;6.77;6.20;;;15.50;98.60;;;;;;5075278;28;20220;-63
2021/07/23 02:27:47;;;;;;;5.37;4.97;;;15.50;98.80;;;;;;5074859;28;20187;-63
2021/07/23 02:30:13;;;;;;;5.93;5.33;;;15.40;97.70;;;;;;5075175;28;20255;-63
2021/07/23 02:32:38;;;;;;;7.13;6.47;;;15.40;97.80;;;;;;5075381;28;20171;-63
2021/07/23 02:35:04;;;;;;;7.03;6.43;;;15.50;99.00;;;;;;5073867;28;20167;-63
2021/07/23 02:37:30;;;;;;;6.00;5.50;;;15.60;99.00;;;;;;5075262;28;20265;-63
2021/07/23 02:39:56;;;;;;;7.23;6.27;;;15.60;99.10;;;;;;5074828;28;20409;-63
2021/07/23 02:42:21;;;;;;;5.80;5.30;;;15.60;99.20;;;;;;5075008;28;20171;-63
2021/07/23 02:44:47;;;;;;;6.10;5.60;;;15.70;99.40;;;;;;5075010;28;20237;-63
2021/07/23 02:47:13;;;;;;;7.03;6.33;;;15.60;98.80;;;;;;5074556;28;20188;-63
2021/07/23 02:49:38;;;;;;;6.60;6.03;;;15.50;97.90;;;;;;5075025;28;20574;-63
2021/07/23 02:52:04;;;;;;;5.37;4.87;;;15.70;99.20;;;;;;5074839;28;20408;-63
2021/07/23 02:54:30;;;;;;;7.00;5.90;;;15.60;98.70;;;;;;5074862;28;20163;-63
2021/07/23 02:56:55;;;;;;;6.20;5.63;;;15.60;99.20;;;;;;5074244;28;20176;-63
2021/07/23 02:59:21;;;;;;;6.10;5.67;;;15.60;98.90;;;;;;5074619;28;20168;-62
2021/07/23 03:01:46;;;;;;;5.57;5.10;;;15.60;99.20;;;;;;5073562;28;20211;-63
2021/07/23 03:04:12;;;;;;;6.53;5.93;;;15.70;99.60;;;;;;5073518;28;20604;-63
2021/07/23 03:06:37;;;;;;;7.23;5.87;;;15.70;99.70;;;;;;5073193;28;20535;-63
2021/07/23 03:09:03;;;;;;;5.73;5.30;;;15.70;99.60;;;;;;5073229;28;20270;-63
2021/07/23 03:11:28;;;;;;;6.03;5.53;;;15.60;98.60;;;;;;5073315;28;20174;-62
2021/07/23 03:13:55;;;;;;;5.97;5.47;;;15.60;99.00;;;;;;5073266;28;20294;-63
2021/07/23 03:16:21;;;;;;;5.53;5.10;;;15.40;97.10;;;;;;5073063;28;20537;-63
2021/07/23 03:18:46;;;;;;;5.50;5.10;;;15.50;98.60;;;;;;5072787;28;20429;-63
2021/07/23 03:21:12;;;;;;;4.87;4.43;;;15.50;99.30;;;;;;5073348;28;20658;-63
2021/07/23 03:23:38;;;;;;;6.90;5.60;;;15.60;99.70;;;;;;5073134;28;20167;-63
2021/07/23 03:26:07;;;;;;;5.93;5.43;;;15.60;99.80;;;;;;5072808;28;20171;-63
2021/07/23 03:28:32;;;;;;;5.33;4.83;;;15.60;99.90;;;;;;5073332;28;20199;-63
2021/07/23 03:30:58;;;;;;;6.10;5.60;;;15.60;99.90;;;;;;5073069;28;20811;-63
2021/07/23 03:33:24;;;;;;;6.30;5.70;;;15.60;99.90;;;;;;5073117;28;20221;-63
2021/07/23 03:35:49;;;;;;;6.03;5.53;;;15.60;99.80;;;;;;5072936;28;20393;-63
2021/07/23 03:38:15;;;;;;;6.20;4.70;;;15.60;99.50;;;;;;5072704;28;20223;-63
2021/07/23 03:40:40;;;;;;;5.13;4.77;;;15.60;99.80;;;;;;5072752;28;20174;-63
2021/07/23 03:43:06;;;;;;;6.20;5.70;;;15.60;99.70;;;;;;5072889;28;20171;-63
2021/07/23 03:45:31;;;;;;;5.50;4.93;;;15.40;98.30;;;;;;5072784;28;20171;-63
2021/07/23 03:47:57;;;;;;;5.50;5.00;;;15.40;98.30;;;;;;5072518;28;20199;-63
2021/07/23 03:50:22;;;;;;;6.60;5.50;;;15.40;99.10;;;;;;5072691;28;20224;-63
2021/07/23 03:52:48;;;;;;;5.73;5.13;;;15.40;98.80;;;;;;5072730;28;20179;-63
2021/07/23 03:55:14;;;;;;;4.77;4.47;;;15.40;99.40;;;;;;5072559;28;20281;-62
2021/07/23 03:57:40;;;;;;;6.87;5.33;;;15.40;99.70;;;;;;5072595;28;20214;-62
2021/07/23 04:00:10;;;;;;;4.80;4.50;;;15.40;99.60;;;;;;5036076;28;1058818;-63
2021/07/23 04:02:36;;;;;;;4.90;4.50;;;15.50;99.90;;;;;;5073437;28;20215;-63
2021/07/23 04:05:03;;;;;;;5.03;4.60;;;15.50;99.90;;;;;;5073635;28;20890;-63
2021/07/23 04:07:31;;;;;;;5.97;5.47;;;15.40;99.50;;;;;;5073126;28;20198;-63
2021/07/23 04:09:57;;;;;;;5.87;5.37;;;15.30;98.10;;;;;;5073366;28;20835;-63
2021/07/23 04:12:22;;;;;;;5.87;5.37;;;15.30;98.80;;;;;;5073390;28;20424;-63
2021/07/23 04:14:48;;;;;;;4.90;4.50;;;15.40;99.60;;;;;;5073374;28;20893;-63
2021/07/23 04:17:13;;;;;;;6.10;5.03;;;15.50;99.90;;;;;;5073003;28;20655;-63
2021/07/23 04:19:39;;;;;;;5.23;4.80;;;15.50;99.90;;;;;;5073382;28;20687;-63
2021/07/23 04:22:05;;;;;;;5.10;4.70;;;15.50;99.90;;;;;;5073143;28;20209;-63
2021/07/23 04:24:30;;;;;;;5.00;4.60;;;15.30;98.30;;;;;;5073001;28;20171;-64
2021/07/23 04:26:57;;;;;;;5.73;5.23;;;15.10;96.80;;;;;;5072966;28;20167;-63
2021/07/23 04:29:23;;;;;;;6.60;6.00;;;15.10;97.50;;;;;;5072852;28;20644;-63
2021/07/23 04:31:48;;;;;;;7.10;6.50;;;15.10;98.20;;;;;;5072499;28;20441;-63
2021/07/23 04:34:14;;;;;;;5.17;4.60;;;15.00;97.70;;;;;;5072838;28;20632;-63
2021/07/23 04:36:40;;;;;;;5.17;4.77;;;15.10;98.70;;;;;;5072704;28;20297;-63
2021/07/23 04:39:05;;;;;;;5.40;5.00;;;15.20;99.40;;;;;;5072629;28;20187;-63
2021/07/23 04:41:31;;;;;;;4.40;4.10;;;15.30;99.90;;;;;;5072803;28;20167;-63
2021/07/23 04:43:57;;;;;;;5.73;5.27;;;15.40;99.90;;;;;;5072639;28;20171;-63
2021/07/23 04:46:22;;;;;;;5.53;5.13;;;15.50;99.90;;;;;;5072540;28;20194;-63
2021/07/23 04:48:48;;;;;;;5.00;4.60;;;15.50;99.90;;;;;;5072566;28;20191;-63
2021/07/23 04:51:13;;;;;;;5.90;5.30;;;15.60;99.90;;;;;;5072578;28;20294;-63
2021/07/23 04:53:39;;;;;;;5.20;4.40;;;15.60;99.90;;;;;;5072421;28;20163;-63
2021/07/23 04:56:06;;;;;;;5.07;4.67;;;15.70;99.90;;;;;;5072219;28;20163;-63
2021/07/23 04:58:32;;;;;;;5.90;5.40;;;15.70;99.90;;;;;;5072388;28;20183;-63
2021/07/23 05:00:58;;;;;;;5.70;5.20;;;15.70;99.90;;;;;;5072303;28;20567;-63
2021/07/23 05:03:33;;;;;;;5.73;5.23;;;15.80;99.90;;;;;;5072400;28;20406;-63
2021/07/23 05:06:00;;;;;;;5.57;5.07;;;15.80;99.90;;;;;;5072068;28;20913;-63
2021/07/23 05:08:27;;;;;;;7.57;5.00;;;15.90;99.90;;;;;;5072204;28;20437;-63
2021/07/23 05:10:52;;;;;;;5.57;4.97;;;15.90;99.90;;;;;;5072339;28;20472;-63
2021/07/23 05:13:19;;;;;;;5.20;4.80;;;16.00;99.90;;;;;;5072216;28;20401;-63
2021/07/23 05:15:45;;;;;;;5.53;5.03;;;16.00;99.80;;;;;;5072297;28;20179;-63
2021/07/23 05:18:11;;;;;;;4.90;4.50;;;16.10;99.80;;;;;;5071853;28;20502;-63
2021/07/23 05:20:37;;;;;;;5.57;5.07;;;16.10;99.80;;;;;;5072061;28;20176;-63
2021/07/23 05:23:03;;;;;;;4.67;4.27;;;16.10;99.80;;;;;;5072029;28;20270;-63
2021/07/23 05:25:30;;;;;;;5.23;4.83;;;16.20;99.70;;;;;;5072104;28;20512;-63
2021/07/23 05:27:56;;;;;;;5.57;5.07;;;16.20;99.60;;;;;;5071684;28;20628;-63
2021/07/23 05:30:21;;;;;;;5.80;5.20;;;16.30;99.60;;;;;;5071974;28;20459;-63
2021/07/23 05:32:47;;;;;;;6.00;5.50;;;16.30;99.50;;;;;;5071871;28;20221;-63
2021/07/23 05:35:12;;;;;;;7.30;6.70;;;16.40;99.40;;;;;;5071978;28;20216;-63
2021/07/23 05:37:38;;;;;;;4.70;4.40;;;16.50;99.40;;;;;;5071474;28;20222;-64
2021/07/23 05:40:04;;;;;;;6.50;5.90;;;16.50;99.40;;;;;;5071949;28;20206;-63
2021/07/23 05:42:31;;;;;;;5.70;5.20;;;16.50;99.30;;;;;;5071783;28;20171;-63
2021/07/23 05:44:57;;;;;;;4.63;4.33;;;16.60;99.30;;;;;;5071931;28;20500;-63
2021/07/23 05:47:22;;;;;;;5.13;4.73;;;16.60;99.20;;;;;;5071446;28;20505;-63
2021/07/23 05:49:48;;;;;;;4.83;4.43;;;16.70;99.20;;;;;;5071809;28;20195;-63
2021/07/23 05:52:13;;;;;;;5.93;5.43;;;16.70;99.10;;;;;;5072020;28;20171;-63
2021/07/23 05:54:39;;;;;;;4.60;4.20;;;16.80;99.10;;;;;;5071651;28;20198;-63
2021/07/23 05:57:05;;;;;;;5.30;4.87;;;16.80;99.00;;;;;;5071451;28;20182;-64
2021/07/23 05:59:32;;;;;;;5.80;5.33;;;16.80;98.90;;;;;;5071806;28;20198;-63
2021/07/23 06:01:57;;;;;;;5.57;5.17;;;16.90;98.90;;;;;;5071786;28;20254;-63
2021/07/23 06:04:23;;;;;;;4.80;4.40;;;17.00;98.70;;;;;;5071552;28;20509;-63
2021/07/23 06:06:48;;;;;;;5.77;5.30;;;17.10;98.50;;;;;;5071441;28;20243;-64
2021/07/23 06:09:15;;;;;;;6.17;5.63;;;17.10;98.30;;;;;;5071569;28;20171;-64
2021/07/23 06:11:40;;;;;;;5.90;5.40;;;17.20;98.10;;;;;;5071752;28;20163;-63
2021/07/23 06:14:06;;;;;;;11.13;10.10;;;17.20;97.80;;;;;;5071468;28;20428;-64
2021/07/23 06:16:32;;;;;;;6.77;5.33;;;17.20;97.70;;;;;;5071444;28;20639;-63
2021/07/23 06:18:59;;;;;;;5.50;5.00;;;17.20;97.80;;;;;;5071593;28;20713;-63
2021/07/23 06:21:24;;;;;;;5.17;4.77;;;17.20;97.80;;;;;;5071578;28;20183;-63
2021/07/23 06:23:50;;;;;;;7.70;7.00;;;17.20;97.90;;;;;;5071696;28;20504;-62
2021/07/23 06:26:16;;;;;;;9.33;8.50;;;17.10;97.70;;;;;;5071241;28;20175;-64
2021/07/23 06:28:41;;;;;;;6.40;5.80;;;17.00;98.00;;;;;;5071656;28;20550;-63
2021/07/23 06:31:07;;;;;;;7.10;6.43;;;17.00;98.20;;;;;;5071313;28;20199;-63
2021/07/23 06:33:33;;;;;;;7.53;6.10;;;17.00;98.50;;;;;;5071526;28;20178;-63
2021/07/23 06:36:00;;;;;;;13.00;9.67;;;17.10;98.20;;;;;;5071072;28;20167;-63
2021/07/23 06:38:26;;;;;;;8.93;7.97;;;17.00;98.10;;;;;;5071384;28;20191;-63
2021/07/23 06:40:53;;;;;;;7.27;6.47;;;17.00;99.00;;;;;;5071288;28;20425;-63
2021/07/23 06:43:19;;;;;;;8.03;7.33;;;17.10;98.90;;;;;;5071263;28;20175;-63
2021/07/23 06:45:55;;;;;;;6.17;5.67;;;17.10;98.90;;;;;;5071331;28;20490;-63
2021/07/23 06:48:21;;;;;;;11.30;8.60;;;17.20;98.50;;;;;;5070851;28;20444;-63
2021/07/23 06:50:49;;;;;;;9.47;7.63;;;17.30;98.60;;;;;;5071130;28;20453;-63
2021/07/23 06:53:17;;;;;;;11.13;9.90;;;17.30;99.60;;;;;;5071624;28;20175;-63
2021/07/23 06:55:43;;;;;;;9.77;7.77;;;17.30;99.60;;;;;;5074959;28;20429;-63
2021/07/23 06:58:09;;;;;;;10.87;9.77;;;17.30;99.60;;;;;;5074409;28;20457;-63
2021/07/23 07:00:35;;;;;;;12.80;10.40;;;17.30;99.90;;;;;;5074726;28;20667;-63
2021/07/23 07:03:01;;;;;;;13.50;10.10;;;17.30;99.70;;;;;;5074617;28;20761;-63
2021/07/23 07:05:27;;;;;;;11.47;10.37;;;17.30;99.90;;;;;;5074715;28;20558;-64
2021/07/23 07:07:53;;;;;;;10.87;9.77;;;17.30;99.60;;;;;;5074207;28;20245;-64
2021/07/23 07:10:19;;;;;;;10.37;9.37;;;17.40;99.60;;;;;;5074729;28;20866;-63
2021/07/23 07:12:44;;;;;;;10.53;9.43;;;17.60;99.20;;;;;;5074765;28;20179;-63
2021/07/23 07:15:10;;;;;;;16.03;12.73;;;17.60;99.60;;;;;;5074577;28;20619;-63
2021/07/23 07:17:36;;;;;;;9.83;8.80;;;17.60;99.60;;;;;;5074202;28;20457;-63
2021/07/23 07:20:01;;;;;;;9.47;8.50;;;17.70;98.80;;;;;;5074577;28;20177;-63
2021/07/23 07:22:27;;;;;;;11.17;10.00;;;17.80;98.50;;;;;;5074547;28;20166;-64
2021/07/23 07:24:53;;;;;;;11.90;10.20;;;17.80;99.00;;;;;;5074421;28;20170;-63
2021/07/23 07:27:20;;;;;;;9.90;8.90;;;17.90;99.20;;;;;;5074236;28;20505;-63
2021/07/23 07:29:45;;;;;;;12.60;9.73;;;18.00;98.30;;;;;;5074041;28;20445;-63
2021/07/23 07:32:11;;;;;;;11.67;10.53;;;18.10;98.00;;;;;;5074216;28;20431;-63
2021/07/23 07:34:37;;;;;;;11.83;10.37;;;18.10;98.50;;;;;;5074107;28;20246;-63
2021/07/23 07:37:04;;;;;;;9.67;8.50;;;18.20;97.50;;;;;;5073756;28;20174;-63
2021/07/23 07:39:30;;;;;;;9.13;7.80;;;18.30;96.90;;;;;;5074110;28;20414;-63
2021/07/23 07:41:56;;;;;;;11.50;10.30;;;18.40;97.00;;;;;;5074076;28;20402;-63
2021/07/23 07:44:22;;;;;;;12.97;10.57;;;18.50;96.60;;;;;;5073949;28;20428;-63
2021/07/23 07:46:48;;;;;;;12.37;10.77;;;18.60;97.10;;;;;;5073473;28;20402;-63
2021/07/23 07:49:13;;;;;;;9.80;8.50;;;18.60;97.00;;;;;;5073769;28;20409;-64
2021/07/23 07:51:39;;;;;;;10.90;9.80;;;18.70;97.00;;;;;;5073755;28;20217;-63
2021/07/23 07:54:04;;;;;;;8.37;7.40;;;18.80;96.20;;;;;;5073810;28;20666;-63
2021/07/23 07:56:30;;;;;;;9.13;8.30;;;18.90;96.70;;;;;;5073410;28;20167;-64
2021/07/23 07:58:56;;;;;;;8.53;7.63;;;19.00;95.60;;;;;;5073589;28;20275;-64
2021/07/23 08:01:21;;;;;;;8.37;7.40;;;19.00;95.80;;;;;;5073576;28;20274;-62
2021/07/23 08:03:47;;;;;;;8.80;7.63;;;19.10;95.60;;;;;;5073688;28;20639;-63
2021/07/23 08:06:48;;;;;;;10.27;9.27;;;19.20;96.30;;;;;;5072119;28;20168;-62
2021/07/23 08:09:08;;;;;;;12.93;9.03;;;19.20;96.20;;;;;;5074345;28;20218;-63
2021/07/23 08:11:34;;;;;;;8.60;7.40;;;19.40;95.20;;;;;;5073489;28;21012;-63
2021/07/23 08:13:59;;;;;;;8.20;7.10;;;19.40;94.70;;;;;;5073601;28;20480;-63
2021/07/23 08:16:25;;;;;;;9.40;7.83;;;19.50;95.10;;;;;;5073596;28;20512;-63
2021/07/23 08:18:51;;;;;;;9.33;8.43;;;19.70;95.30;;;;;;5073529;28;20663;-63
2021/07/23 08:21:17;;;;;;;10.93;7.90;;;19.80;93.90;;;;;;5073643;28;20262;-64
2021/07/23 08:23:42;;;;;;;9.67;8.60;;;19.90;94.50;;;;;;5073302;28;20168;-64
2021/07/23 08:26:08;;;;;;;9.50;8.60;;;20.10;93.70;;;;;;5072868;28;20168;-63
2021/07/23 08:28:34;;;;;;;9.03;7.97;;;20.10;93.90;;;;;;5072981;28;20222;-63
2021/07/23 08:30:59;;;;;;;9.57;8.10;;;20.20;94.10;;;;;;5073090;28;20194;-63
2021/07/23 08:33:25;;;;;;;11.40;8.37;;;20.20;93.60;;;;;;5073108;28;20540;-63
2021/07/23 08:35:51;;;;;;;9.37;8.37;;;20.30;93.80;;;;;;5073167;28;20220;-64
2021/07/23 08:38:17;;;;;;;10.83;9.60;;;20.40;94.20;;;;;;5073060;28;20861;-64
2021/07/23 08:40:43;;;;;;;10.37;9.20;;;20.60;94.70;;;;;;5072775;28;20180;-64
2021/07/23 08:43:09;;;;;;;8.17;7.33;;;20.80;94.20;;;;;;5072879;28;20790;-64
2021/07/23 08:45:36;;;;;;;8.20;7.40;;;21.00;93.70;;;;;;5072673;28;20405;-63
2021/07/23 08:48:04;;;;;;;12.37;8.33;;;21.00;93.60;;;;;;5072372;28;20430;-64
2021/07/23 08:50:29;;;;;;;10.90;8.47;;;21.10;93.60;;;;;;5072519;28;20847;-64
2021/07/23 08:52:55;;;;;;;10.93;9.03;;;21.40;93.60;;;;;;5072544;28;20398;-64
2021/07/23 08:55:22;;;;;;;10.13;9.20;;;21.70;93.90;;;;;;5072423;28;20171;-64
2021/07/23 08:57:49;;;;;;;7.77;6.97;;;21.80;93.90;;;;;;5072197;28;20453;-64
2021/07/23 09:00:19;;;;;;;10.50;9.53;;;21.90;92.10;;;;;;5072329;28;20426;-64
2021/07/23 09:02:59;;;;;;;9.43;8.43;;;22.00;91.90;;;;;;5072428;28;20412;-64
2021/07/23 09:05:36;;;;;;;11.00;8.97;;;22.10;92.70;;;;;;5072397;28;20441;-64
2021/07/23 09:08:11;;;;;;;9.50;7.70;;;22.20;91.80;;;;;;5072078;28;20418;-64
2021/07/23 09:10:37;;;;;;;10.77;8.70;;;22.20;91.30;;;;;;5072282;28;20448;-64
2021/07/23 09:13:03;;;;;;;11.77;10.63;;;22.40;91.90;;;;;;5072172;28;20447;-64
2021/07/23 09:15:33;;;;;;;10.20;9.20;;;22.70;92.00;;;;;;5072263;28;20159;-64
2021/07/23 09:17:59;;;;;;;9.10;8.30;;;23.00;92.30;;;;;;5071408;28;20417;-65
2021/07/23 09:20:29;;;;;;;9.30;8.40;;;23.20;90.80;;;;;;5072153;28;20528;-64
2021/07/23 09:22:59;;;;;;;10.90;9.83;;;23.40;90.80;;;;;;5072071;28;20171;-64
2021/07/23 09:25:41;;;;;;;10.87;7.53;;;23.40;90.70;;;;;;5072159;28;20952;-64
2021/07/23 09:28:27;;;;;;;9.50;8.50;;;23.50;91.00;;;;;;5071774;28;20454;-64
2021/07/23 09:30:53;;;;;;;9.77;7.57;;;23.70;89.90;;;;;;5072038;28;20461;-64
2021/07/23 09:33:27;;;;;;;10.10;9.10;;;23.80;90.40;;;;;;5071931;28;20397;-64
2021/07/23 09:35:58;;;;;;;13.00;9.27;;;23.90;90.00;;;;;;5072143;28;20484;-64
2021/07/23 09:38:25;;;;;;;8.60;7.80;;;24.10;89.30;;;;;;5071921;28;20534;-65
2021/07/23 09:40:52;;;;;;;10.93;8.20;;;24.20;90.00;;;;;;5071975;28;20543;-64
2021/07/23 09:43:30;;;;;;;10.63;8.83;;;24.30;90.10;;;;;;5071784;28;20405;-64
2021/07/23 09:46:20;;;;;;;9.97;8.73;;;24.30;89.20;;;;;;5071966;28;20409;-64
2021/07/23 09:48:47;;;;;;;8.77;7.93;;;24.30;90.10;;;;;;5071828;28;20447;-65
2021/07/23 09:51:13;;;;;;;10.80;9.53;;;24.80;90.80;;;;;;5071946;28;20453;-64
2021/07/23 09:53:40;;;;;;;10.03;8.73;;;25.10;89.00;;;;;;5071737;28;20398;-64
2021/07/23 09:56:09;;;;;;;8.50;7.70;;;25.40;88.20;;;;;;5071802;28;20397;-64
2021/07/23 09:58:46;;;;;;;10.10;9.10;;;25.60;89.40;;;;;;5071803;28;20425;-65
2021/07/23 10:01:15;;;;;;;9.27;8.47;;;25.70;85.70;;;;;;5071656;28;20479;-65
2021/07/23 10:03:44;;;;;;;9.57;8.73;;;25.90;86.80;;;;;;5071673;28;20402;-64
2021/07/23 10:06:31;;;;;;;10.13;9.10;;;26.20;86.70;;;;;;5071322;28;20405;-65
2021/07/23 10:09:04;;;;;;;11.67;9.83;;;26.20;85.30;;;;;;5071648;28;20933;-64
2021/07/23 10:11:30;;;;;;;9.57;8.63;;;26.30;84.20;;;;;;5071485;28;20457;-65
2021/07/23 10:13:58;;;;;;;8.80;8.00;;;26.10;84.30;;;;;;5071650;28;20414;-64
2021/07/23 10:16:25;;;;;;;11.43;9.43;;;26.30;86.80;;;;;;5071082;28;20898;-65
2021/07/23 10:18:51;;;;;;;10.63;9.63;;;26.20;83.00;;;;;;5071655;28;20437;-65
2021/07/23 10:21:16;;;;;;;12.63;11.53;;;26.40;89.00;;;;;;5071669;28;20405;-64
2021/07/23 10:23:45;;;;;;;10.57;9.10;;;26.80;85.20;;;;;;5071656;28;20408;-65
2021/07/23 10:26:11;;;;;;;9.37;8.50;;;26.90;83.10;;;;;;5071261;28;20178;-64
2021/07/23 10:28:40;;;;;;;11.70;9.23;;;27.00;82.10;;;;;;5072513;28;20959;-64
2021/07/23 10:31:18;;;;;;;8.87;8.07;;;27.00;82.20;;;;;;5075055;28;20452;-65
2021/07/23 10:33:53;;;;;;;9.40;7.70;;;27.30;83.00;;;;;;5075247;28;20416;-65
2021/07/23 10:36:39;;;;;;;9.30;8.60;;;27.70;84.10;;;;;;5074906;28;20412;-65
2021/07/23 10:39:05;;;;;;;9.57;8.63;;;28.00;80.60;;;;;;5075243;28;20424;-65
2021/07/23 10:41:31;;;;;;;11.53;8.80;;;28.50;81.80;;;;;;5075021;28;20967;-65
2021/07/23 10:43:56;;;;;;;9.03;8.30;;;28.30;79.50;;;;;;5075191;28;20179;-65
2021/07/23 10:46:44;;;;;;;8.70;7.90;;;28.20;79.80;;;;;;5074729;28;20492;-65
2021/07/23 10:49:33;;;;;;;9.57;8.67;;;28.50;78.40;;;;;;5074947;28;20237;-65
2021/07/23 10:52:04;;;;;;;10.60;9.27;;;28.60;81.00;;;;;;5074854;28;20416;-66
2021/07/23 10:54:34;;;;;;;10.47;8.53;;;29.10;77.00;;;;;;5074742;28;20902;-66
2021/07/23 10:57:00;;;;;;;10.17;9.27;;;29.10;75.70;;;;;;5074855;28;20408;-65
2021/07/23 10:59:41;;;;;;;10.30;9.37;;;29.10;76.30;;;;;;5074827;28;20386;-65
2021/07/23 11:02:07;;;;;;;9.77;8.77;;;29.00;74.90;;;;;;5074872;28;20639;-65
2021/07/23 11:04:33;;;;;;;11.03;9.90;;;29.30;76.70;;;;;;5074534;28;20404;-65
2021/07/23 11:07:00;;;;;;;9.77;9.00;;;29.80;75.00;;;;;;5074420;28;20389;-65
2021/07/23 11:09:26;;;;;;;10.55;9.30;;;29.60;75.70;;;;;;5074515;28;20394;-64
2021/07/23 11:11:52;;;;;;;11.07;10.17;;;29.10;75.20;;;;;;5074664;28;20405;-64
2021/07/23 11:14:19;;;;;;;11.50;10.50;;;28.60;75.90;;;;;;5074368;28;20398;-65
2021/07/23 11:16:46;;;;;;;12.10;10.90;;;28.50;74.90;;;;;;5074275;28;20163;-64
2021/07/23 11:19:20;;;;;;;12.23;11.13;;;28.80;76.70;;;;;;5074219;28;20397;-65
2021/07/23 11:21:45;;;;;;;14.70;10.90;;;28.70;76.30;;;;;;5074444;28;20827;-65
2021/07/23 11:24:13;;;;;;;11.10;10.03;;;28.80;76.70;;;;;;5074260;28;20524;-65
2021/07/23 11:26:53;;;;;;;11.93;10.47;;;28.90;77.90;;;;;;5074024;28;20168;-64
2021/07/23 11:29:37;;;;;;;12.03;10.33;;;29.00;76.90;;;;;;5074207;28;20757;-65
2021/07/23 11:32:04;;;;;;;10.50;9.40;;;28.90;76.50;;;;;;5074239;28;20401;-65
2021/07/23 11:34:36;;;;;;;10.57;9.67;;;29.10;77.50;;;;;;5074634;28;20402;-64
2021/07/23 11:37:15;;;;;;;11.73;10.70;;;29.60;77.00;;;;;;5074072;28;20485;-65
2021/07/23 11:39:50;;;;;;;10.77;9.93;;;29.80;73.40;;;;;;5073944;28;20404;-65
2021/07/23 11:42:15;;;;;;;12.17;11.17;;;30.20;73.40;;;;;;5074425;28;20428;-65
2021/07/23 11:44:58;;;;;;;10.63;9.70;;;29.90;71.30;;;;;;5073901;28;20449;-65
2021/07/23 11:47:38;;;;;;;10.53;9.53;;;29.80;77.30;;;;;;5073708;28;20194;-65
2021/07/23 11:50:14;;;;;;;11.73;10.73;;;30.20;74.10;;;;;;5074035;28;20448;-65
2021/07/23 11:52:41;;;;;;;11.73;10.70;;;30.30;73.60;;;;;;5074042;28;20409;-65
2021/07/23 11:55:14;;;;;;;13.97;10.20;;;30.20;76.50;;;;;;5074040;28;20446;-65
2021/07/23 11:57:41;;;;;;;13.20;11.83;;;30.70;73.20;;;;;;5073551;28;20417;-65
2021/07/23 12:00:23;;;;;;;14.40;12.97;;;30.70;71.00;;;;;;5073553;28;20876;-65
2021/07/23 12:02:53;;;;;;;12.10;10.93;;;30.10;68.40;;;;;;5073496;28;20397;-65
2021/07/23 12:05:20;;;;;;;13.03;11.93;;;29.60;72.90;;;;;;5073550;28;20414;-65
2021/07/23 12:08:02;;;;;;;13.53;12.10;;;29.30;73.90;;;;;;5073444;28;20780;-64
2021/07/23 12:10:32;;;;;;;11.93;10.83;;;29.40;74.70;;;;;;5073575;28;20445;-65
2021/07/23 12:13:06;;;;;;;11.77;10.67;;;29.30;72.70;;;;;;5073597;28;20405;-65
2021/07/23 12:15:56;;;;;;;12.23;11.10;;;29.30;73.00;;;;;;5073568;28;20397;-65
2021/07/23 12:18:24;;;;;;;11.90;10.80;;;29.80;73.50;;;;;;5073534;28;20414;-65
2021/07/23 12:20:51;;;;;;;11.90;10.90;;;30.20;74.20;;;;;;5073365;28;20401;-65
2021/07/23 12:23:27;;;;;;;13.17;11.77;;;30.50;73.50;;;;;;5073272;28;20424;-65
2021/07/23 12:25:54;;;;;;;14.03;12.80;;;30.80;72.40;;;;;;5073299;28;20412;-65
2021/07/23 12:28:21;;;;;;;11.73;10.67;;;30.20;70.40;;;;;;5073461;28;20417;-65
2021/07/23 12:30:48;;;;;;;12.77;11.10;;;30.20;75.00;;;;;;5073166;28;20947;-66
2021/07/23 12:33:14;;;;;;;12.17;11.00;;;30.60;71.80;;;;;;5073035;28;20401;-65
2021/07/23 12:35:41;;;;;;;12.23;11.13;;;30.70;73.20;;;;;;5072847;28;20795;-65
2021/07/23 12:38:09;;;;;;;11.47;10.50;;;30.70;74.70;;;;;;5072455;28;20832;-66
2021/07/23 12:40:48;;;;;;;12.50;11.50;;;30.70;71.90;;;;;;5072806;28;20401;-66
2021/07/23 12:43:16;;;;;;;12.73;11.47;;;31.00;71.00;;;;;;5073015;28;20405;-65
2021/07/23 12:45:41;;;;;;;11.73;10.43;;;30.80;71.20;;;;;;5072734;28;20954;-65